createdAt,value
2023-01-17T00:00:16.255Z,98160.25
2023-01-17T00:02:50.911Z,98154.91
2023-01-17T00:05:44.045Z,98148.22
2023-01-17T00:08:41.747Z,98146.81
2023-01-17T00:11:16.011Z,98143.63
2023-01-17T00:13:50.816Z,98141.66
2023-01-17T00:16:25.132Z,98136.81
2023-01-17T00:19:13.761Z,98142.13
2023-01-17T00:22:07.081Z,98148.13
2023-01-17T00:24:59.376Z,98140.81
2023-01-17T00:27:32.378Z,98146.06
2023-01-17T00:30:07.334Z,98145.03
2023-01-17T00:32:40.390Z,98159.84
2023-01-17T00:35:14.022Z,98149.34
2023-01-17T00:37:48.504Z,98137.41
2023-01-17T00:40:21.862Z,98140.22
2023-01-17T00:43:13.896Z,98132.53
2023-01-17T00:46:06.439Z,98130.28
2023-01-17T00:48:58.188Z,98135.16
2023-01-17T00:51:51.349Z,98156.41
2023-01-17T00:54:44.181Z,98163.91
2023-01-17T00:57:36.058Z,98174.22
2023-01-17T01:00:29.866Z,98172.91
2023-01-17T01:03:27.451Z,98172.81
2023-01-17T01:06:23.457Z,98143.25
2023-01-17T01:09:16.075Z,98151.69
2023-01-17T01:12:08.985Z,98155.66
2023-01-17T01:15:01.261Z,98149.06
2023-01-17T01:17:53.094Z,98150.09
2023-01-17T01:20:45.307Z,98150.94
2023-01-17T01:23:37.149Z,98149.06
2023-01-17T01:26:29.353Z,98149.44
2023-01-17T01:29:22.424Z,98142.78
2023-01-17T01:32:14.599Z,98148.87
2023-01-17T01:34:48.824Z,98145.88
2023-01-17T01:37:23.477Z,98140.63
2023-01-17T01:39:58.138Z,98147.56
2023-01-17T01:42:32.846Z,98144.56
2023-01-17T01:45:18.065Z,98140.44
2023-01-17T01:47:56.570Z,98138.47
2023-01-17T01:50:34.618Z,98134.91
2023-01-17T01:53:09.479Z,98131.97
2023-01-17T01:55:45.585Z,98133.47
2023-01-17T01:58:23.753Z,98139.13
2023-01-17T02:01:00.177Z,98131.50
2023-01-17T02:03:35.747Z,98118.94
2023-01-17T02:06:26.861Z,98107.38
2023-01-17T02:09:05.441Z,98107.28
2023-01-17T02:11:41.819Z,98108.50
2023-01-17T02:14:17.589Z,98110.56
2023-01-17T02:17:12.433Z,98098.91
2023-01-17T02:20:16.805Z,98090.81
2023-01-17T02:23:18.316Z,98088.28
2023-01-17T02:26:14.908Z,98090.63
2023-01-17T02:29:10.905Z,98077.84
2023-01-17T02:31:50.837Z,98083.69
2023-01-17T02:34:32.862Z,98083.69
2023-01-17T02:37:14.416Z,98076.72
2023-01-17T02:39:55.348Z,98082.25
2023-01-17T02:42:36.118Z,98072.97
2023-01-17T02:45:15.925Z,98053.22
2023-01-17T02:47:51.963Z,98066.97
2023-01-17T02:50:38.986Z,98057.59
2023-01-17T02:53:30.277Z,98045.88
2023-01-17T02:56:12.958Z,98026.87
2023-01-17T02:59:02.026Z,98033.75
2023-01-17T03:01:44.941Z,98018.16
2023-01-17T03:04:25.965Z,98015.84
2023-01-17T03:07:03.828Z,98023.66
2023-01-17T03:09:40.825Z,98006.78
2023-01-17T03:12:15.241Z,98017.41
2023-01-17T03:14:49.861Z,98011.22
2023-01-17T03:17:26.398Z,98015.91
2023-01-17T03:20:02.316Z,98017.53
2023-01-17T03:22:36.483Z,98001.47
2023-01-17T03:25:11.116Z,98007.41
2023-01-17T03:27:45.350Z,98020.00
2023-01-17T03:30:21.864Z,98008.94
2023-01-17T03:32:56.050Z,98010.44
2023-01-17T03:35:32.024Z,98016.44
2023-01-17T03:38:06.799Z,98020.63
2023-01-17T03:40:41.361Z,98019.87
2023-01-17T03:43:15.597Z,98014.91
2023-01-17T03:45:52.167Z,98021.56
2023-01-17T03:48:26.481Z,98015.19
2023-01-17T03:51:02.335Z,98016.41
2023-01-17T03:53:36.762Z,98021.19
2023-01-17T03:56:11.273Z,98022.13
2023-01-17T03:58:45.786Z,98015.72
2023-01-17T04:01:20.325Z,98022.69
2023-01-17T04:03:55.417Z,98029.63
2023-01-17T04:06:31.071Z,98032.63
2023-01-17T04:09:05.632Z,98038.53
2023-01-17T04:11:39.813Z,98038.19
2023-01-17T04:14:14.353Z,98043.72
2023-01-17T04:16:48.664Z,98046.25
2023-01-17T04:19:23.508Z,98040.53
2023-01-17T04:21:59.061Z,98039.03
2023-01-17T04:24:33.601Z,98040.31
2023-01-17T04:27:07.974Z,98044.06
2023-01-17T04:29:42.597Z,98051.69
2023-01-17T04:32:16.901Z,98044.16
2023-01-17T04:34:51.369Z,98053.06
2023-01-17T04:37:27.132Z,98051.25
2023-01-17T04:40:01.735Z,98063.72
2023-01-17T04:42:36.010Z,98052.97
2023-01-17T04:45:11.479Z,98059.78
2023-01-17T04:47:45.701Z,98062.22
2023-01-17T04:50:20.433Z,98070.41
2023-01-17T04:52:56.039Z,98069.72
2023-01-17T04:55:30.484Z,98063.25
2023-01-17T04:58:04.840Z,98058.81
2023-01-17T05:00:39.852Z,98064.56
2023-01-17T05:03:14.029Z,98067.41
2023-01-17T05:05:48.622Z,98069.19
2023-01-17T05:08:24.349Z,98076.72
2023-01-17T05:10:59.572Z,98086.00
2023-01-17T05:13:33.773Z,98101.41
2023-01-17T05:16:08.857Z,98103.31
2023-01-17T05:18:43.407Z,98114.81
2023-01-17T05:21:18.003Z,98122.31
2023-01-17T05:23:53.649Z,98114.69
2023-01-17T05:26:28.209Z,98126.41
2023-01-17T05:29:02.598Z,98129.25
2023-01-17T05:31:37.476Z,98127.28
2023-01-17T05:34:11.782Z,98136.69
2023-01-17T05:36:46.279Z,98137.44
2023-01-17T05:39:21.888Z,98134.72
2023-01-17T05:41:56.334Z,98141.94
2023-01-17T05:44:30.509Z,98134.91
2023-01-17T05:47:04.989Z,98134.91
2023-01-17T05:49:39.870Z,98126.81
2023-01-17T05:52:14.457Z,98147.94
2023-01-17T05:54:50.752Z,98163.47
2023-01-17T05:57:25.260Z,98162.63
2023-01-17T05:59:59.807Z,98158.25
2023-01-17T06:02:34.381Z,98165.88
2023-01-17T06:05:09.444Z,98181.00
2023-01-17T06:07:45.472Z,98183.72
2023-01-17T06:10:22.322Z,98187.66
2023-01-17T06:13:04.511Z,98198.38
2023-01-17T06:15:40.019Z,98206.81
2023-01-17T06:18:16.192Z,98205.97
2023-01-17T06:20:54.601Z,98211.78
2023-01-17T06:23:29.494Z,98209.16
2023-01-17T06:26:07.263Z,98216.66
2023-01-17T06:28:41.625Z,98224.06
2023-01-17T06:31:16.128Z,98235.03
2023-01-17T06:33:50.386Z,98241.41
2023-01-17T06:36:25.225Z,98246.19
2023-01-17T06:38:59.564Z,98241.66
2023-01-17T06:41:35.445Z,98247.56
2023-01-17T06:44:10.514Z,98257.06
2023-01-17T06:46:47.683Z,98264.28
2023-01-17T06:49:22.208Z,98264.88
2023-01-17T06:51:56.838Z,98269.16
2023-01-17T06:54:31.151Z,98283.22
2023-01-17T06:57:07.096Z,98288.69
2023-01-17T06:59:41.270Z,98290.88
2023-01-17T07:03:02.225Z,98300.28
2023-01-17T07:05:37.479Z,98300.28
2023-01-17T07:08:11.642Z,98318.25
2023-01-17T07:10:46.802Z,98324.56
2023-01-17T07:13:21.108Z,98324.28
2023-01-17T07:15:55.928Z,98326.84
2023-01-17T07:18:31.653Z,98336.03
2023-01-17T07:21:06.302Z,98339.97
2023-01-17T07:23:40.591Z,98350.28
2023-01-17T07:26:17.005Z,98340.63
2023-01-17T07:28:51.341Z,98340.25
2023-01-17T07:31:26.033Z,98349.66
2023-01-17T07:34:02.006Z,98362.37
2023-01-17T07:36:36.524Z,98360.59
2023-01-17T07:39:11.452Z,98363.03
2023-01-17T07:41:47.257Z,98358.16
2023-01-17T07:44:21.537Z,98360.72
2023-01-17T07:46:56.084Z,98365.94
2023-01-17T07:49:31.877Z,98367.25
2023-01-17T07:52:08.466Z,98368.66
2023-01-17T07:54:42.758Z,98375.13
2023-01-17T07:57:17.333Z,98383.00
2023-01-17T07:59:52.398Z,98377.69
2023-01-17T08:02:26.963Z,98375.19
2023-01-17T08:05:02.839Z,98389.66
2023-01-17T08:07:37.212Z,98382.66
2023-01-17T08:10:18.156Z,98386.81
2023-01-17T08:12:52.369Z,98388.72
2023-01-17T08:15:27.100Z,98381.47
2023-01-17T08:18:01.323Z,98376.13
2023-01-17T08:20:37.241Z,98391.66
2023-01-17T08:23:12.032Z,98395.25
2023-01-17T08:25:46.548Z,98397.72
2023-01-17T08:28:20.995Z,98407.28
2023-01-17T08:30:55.629Z,98404.34
2023-01-17T08:33:29.814Z,98389.19
2023-01-17T08:36:05.908Z,98406.84
2023-01-17T08:38:40.044Z,98410.94
2023-01-17T08:41:14.644Z,98409.66
2023-01-17T08:43:49.037Z,98394.97
2023-01-17T08:46:24.365Z,98402.56
2023-01-17T08:49:01.430Z,98393.66
2023-01-17T08:51:37.670Z,98394.47
2023-01-17T08:54:13.441Z,98393.59
2023-01-17T08:56:48.039Z,98407.50
2023-01-17T08:59:22.537Z,98414.88
2023-01-17T09:01:58.402Z,98420.63
2023-01-17T09:04:35.544Z,98411.09
2023-01-17T09:07:11.381Z,98413.06
2023-01-17T09:09:48.410Z,98423.94
2023-01-17T09:12:23.288Z,98435.84
2023-01-17T09:14:57.486Z,98445.63
2023-01-17T09:17:32.172Z,98446.22
2023-01-17T09:20:07.722Z,98455.56
2023-01-17T09:22:45.649Z,98454.28
2023-01-17T09:25:20.398Z,98458.38
2023-01-17T09:27:55.491Z,98465.28
2023-01-17T09:30:29.761Z,98460.87
2023-01-17T09:33:04.318Z,98461.94
2023-01-17T09:35:38.522Z,98464.62
2023-01-17T09:38:15.190Z,98455.50
2023-01-17T09:40:50.256Z,98455.25
2023-01-17T09:43:33.250Z,98464.81
2023-01-17T09:46:18.833Z,98458.69
2023-01-17T09:49:00.035Z,98450.81
2023-01-17T09:51:34.413Z,98445.00
2023-01-17T09:54:19.312Z,98450.78
2023-01-17T09:57:02.021Z,98450.19
2023-01-17T09:59:45.738Z,98455.69
2023-01-17T10:02:43.279Z,98446.97
2023-01-17T10:05:33.388Z,98433.66
2023-01-17T10:08:21.550Z,98435.75
2023-01-17T10:11:17.395Z,98425.81
2023-01-17T10:14:02.936Z,98430.03
2023-01-17T10:16:45.924Z,98421.22
2023-01-17T10:19:32.779Z,98417.75
2023-01-17T10:22:24.752Z,98408.31
2023-01-17T10:25:20.033Z,98413.78
2023-01-17T10:27:59.563Z,98411.53
2023-01-17T10:30:38.167Z,98410.59
2023-01-17T10:33:17.885Z,98405.03
2023-01-17T10:36:00.014Z,98408.44
2023-01-17T10:38:36.705Z,98406.59
2023-01-17T10:41:17.057Z,98401.41
2023-01-17T10:43:57.219Z,98389.19
2023-01-17T10:46:37.525Z,98397.62
2023-01-17T10:49:17.870Z,98379.69
2023-01-17T10:52:12.868Z,98376.44
2023-01-17T10:54:59.164Z,98357.53
2023-01-17T10:57:39.462Z,98359.09
2023-01-17T11:00:29.846Z,98363.72
2023-01-17T11:03:04.153Z,98380.91
2023-01-17T11:05:38.917Z,98376.78
2023-01-17T11:08:14.568Z,98391.97
2023-01-17T11:10:54.223Z,98396.16
2023-01-17T11:13:32.385Z,98389.44
2023-01-17T11:16:11.363Z,98394.16
2023-01-17T11:18:47.943Z,98380.44
2023-01-17T11:21:24.671Z,98378.22
2023-01-17T11:23:59.061Z,98376.75
2023-01-17T11:26:36.417Z,98376.44
2023-01-17T11:29:26.876Z,98370.72
2023-01-17T11:32:32.246Z,98354.28
2023-01-17T11:35:18.665Z,98344.28
2023-01-17T11:37:59.316Z,98344.56
2023-01-17T11:40:38.208Z,98344.78
2023-01-17T11:43:23.094Z,98342.31
2023-01-17T11:46:06.309Z,98338.34
2023-01-17T11:48:42.620Z,98337.09
2023-01-17T11:51:28.331Z,98333.38
2023-01-17T11:54:18.092Z,98334.81
2023-01-17T11:56:59.079Z,98340.78
2023-01-17T11:59:37.584Z,98340.59
2023-01-17T12:02:39.020Z,98341.56
2023-01-17T12:05:27.293Z,98341.03
2023-01-17T12:08:16.071Z,98341.97
2023-01-17T12:10:58.455Z,98322.03
2023-01-17T12:13:59.815Z,98313.59
2023-01-17T12:16:49.103Z,98301.91
2023-01-17T12:19:39.040Z,98284.94
2023-01-17T12:22:33.965Z,98293.69
2023-01-17T12:25:25.112Z,98298.12
2023-01-17T12:28:16.679Z,98288.63
2023-01-17T12:31:05.943Z,98291.53
2023-01-17T12:33:48.405Z,98297.97
2023-01-17T12:36:41.240Z,98303.63
2023-01-17T12:39:19.528Z,98309.59
2023-01-17T12:42:07.490Z,98317.47
2023-01-17T12:44:51.911Z,98315.00
2023-01-17T12:47:26.929Z,98317.81
2023-01-17T12:50:09.512Z,98312.06
2023-01-17T12:52:52.745Z,98300.06
2023-01-17T12:55:41.518Z,98299.78
2023-01-17T12:58:21.905Z,98297.06
2023-01-17T13:01:03.348Z,98313.75
2023-01-17T13:03:57.721Z,98302.47
2023-01-17T13:06:43.551Z,98290.78
2023-01-17T13:09:23.682Z,98285.78
2023-01-17T13:12:04.530Z,98287.78
2023-01-17T13:14:38.763Z,98287.75
2023-01-17T13:17:32.741Z,98281.22
2023-01-17T13:20:20.057Z,98277.50
2023-01-17T13:22:58.228Z,98266.03
2023-01-17T13:25:42.493Z,98259.06
2023-01-17T13:28:30.932Z,98237.16
2023-01-17T13:31:25.520Z,98226.16
2023-01-17T13:34:33.846Z,98207.03
2023-01-17T13:37:43.847Z,98202.78
2023-01-17T13:40:50.199Z,98187.59
2023-01-17T13:43:27.888Z,98191.31
2023-01-17T13:46:04.382Z,98175.91
2023-01-17T13:48:41.020Z,98172.63
2023-01-17T13:51:15.647Z,98173.38
2023-01-17T13:53:49.854Z,98167.44
2023-01-17T13:56:35.403Z,98172.13
2023-01-17T13:59:36.068Z,98161.44
2023-01-17T14:02:36.723Z,98159.16
2023-01-17T14:05:15.318Z,98154.19
2023-01-17T14:07:55.465Z,98150.44
2023-01-17T14:10:39.449Z,98136.44
2023-01-17T14:13:34.867Z,98129.44
2023-01-17T14:16:28.135Z,98120.25
2023-01-17T14:19:02.513Z,98114.56
2023-01-17T14:21:37.329Z,98118.50
2023-01-17T14:24:19.775Z,98109.78
2023-01-17T14:26:57.041Z,98118.69
2023-01-17T14:29:58.966Z,98119.97
2023-01-17T14:32:37.791Z,98126.16
2023-01-17T14:35:23.386Z,98125.37
2023-01-17T14:38:01.827Z,98120.13
2023-01-17T14:40:39.743Z,98126.28
2023-01-17T14:43:17.227Z,98126.09
2023-01-17T14:45:59.816Z,98130.53
2023-01-17T14:48:40.524Z,98133.25
2023-01-17T14:51:15.809Z,98124.78
2023-01-17T14:53:55.675Z,98122.28
2023-01-17T14:56:32.045Z,98123.53
2023-01-17T14:59:14.455Z,98110.87
2023-01-17T15:03:46.308Z,98110.91
2023-01-17T15:06:24.166Z,98100.88
2023-01-17T15:09:01.073Z,98096.72
2023-01-17T15:11:37.701Z,98094.69
2023-01-17T15:14:20.076Z,98093.00
2023-01-17T15:16:55.025Z,98089.69
2023-01-17T15:19:42.929Z,98084.50
2023-01-17T15:22:20.339Z,98073.31
2023-01-17T15:24:55.095Z,98065.59
2023-01-17T15:27:29.748Z,98057.91
2023-01-17T15:30:06.906Z,98058.41
2023-01-17T15:32:41.396Z,98051.91
2023-01-17T15:35:19.798Z,98051.38
2023-01-17T15:37:57.146Z,98055.13
2023-01-17T15:40:33.245Z,98056.09
2023-01-17T15:43:19.682Z,98045.66
2023-01-17T15:45:58.138Z,98053.09
2023-01-17T15:48:40.645Z,98045.66
2023-01-17T15:51:31.916Z,98041.13
2023-01-17T15:54:35.399Z,98042.78
2023-01-17T15:57:27.275Z,98036.53
2023-01-17T16:00:05.874Z,98022.41
2023-01-17T16:02:43.813Z,98030.81
2023-01-17T16:05:35.345Z,98024.09
2023-01-17T16:08:33.984Z,98022.31
2023-01-17T16:11:13.147Z,98016.84
2023-01-17T16:13:48.616Z,98024.31
2023-01-17T16:16:26.585Z,98010.06
2023-01-17T16:19:03.211Z,98011.63
2023-01-17T16:21:37.776Z,98005.06
2023-01-17T16:24:13.425Z,97999.16
2023-01-17T16:26:47.925Z,97994.22
2023-01-17T16:29:22.282Z,97994.22
2023-01-17T16:31:57.169Z,97992.50
2023-01-17T16:34:31.339Z,97987.25
2023-01-17T16:37:05.872Z,97980.00
2023-01-17T16:39:41.589Z,97979.78
2023-01-17T16:42:16.135Z,97974.37
2023-01-17T16:44:50.332Z,97977.84
2023-01-17T16:47:24.896Z,97976.38
2023-01-17T16:49:59.166Z,97980.31
2023-01-17T16:52:33.739Z,97960.16
2023-01-17T16:55:13.298Z,97962.16
2023-01-17T16:57:47.818Z,97941.03
2023-01-17T17:00:23.057Z,97944.56
2023-01-17T17:02:57.798Z,97939.81
2023-01-17T17:05:33.522Z,97930.66
2023-01-17T17:08:08.377Z,97930.66
2023-01-17T17:10:43.929Z,97929.41
2023-01-17T17:13:18.553Z,97920.69
2023-01-17T17:15:52.853Z,97909.09
2023-01-17T17:18:27.751Z,97909.78
2023-01-17T17:21:03.131Z,97902.09
2023-01-17T17:23:38.102Z,97897.16
2023-01-17T17:26:13.834Z,97882.47
2023-01-17T17:28:52.571Z,97869.06
2023-01-17T17:31:27.086Z,97855.69
2023-01-17T17:34:02.444Z,97840.56
2023-01-17T17:36:37.280Z,97826.19
2023-01-17T17:39:14.831Z,97826.44
2023-01-17T17:41:50.505Z,97822.72
2023-01-17T17:44:25.056Z,97808.28
2023-01-17T17:46:59.405Z,97805.72
2023-01-17T17:49:34.158Z,97794.38
2023-01-17T17:52:09.610Z,97789.16
2023-01-17T17:54:44.439Z,97788.38
2023-01-17T17:57:19.999Z,97777.94
2023-01-17T17:59:56.799Z,97776.75
2023-01-17T18:02:31.669Z,97768.78
2023-01-17T18:05:07.307Z,97764.53
2023-01-17T18:07:41.891Z,97746.19
2023-01-17T18:10:17.703Z,97749.59
2023-01-17T18:12:53.777Z,97744.41
2023-01-17T18:15:28.334Z,97735.97
2023-01-17T18:18:02.833Z,97702.19
2023-01-17T18:20:37.503Z,97711.38
2023-01-17T18:23:11.834Z,97708.66
2023-01-17T18:25:46.471Z,97708.88
2023-01-17T18:28:22.229Z,97698.19
2023-01-17T18:30:56.997Z,97690.00
2023-01-17T18:33:31.331Z,97674.59
2023-01-17T18:36:07.399Z,97682.78
2023-01-17T18:38:44.039Z,97681.09
2023-01-17T18:41:20.558Z,97674.16
2023-01-17T18:43:56.951Z,97681.31
2023-01-17T18:46:32.046Z,97671.91
2023-01-17T18:49:07.132Z,97668.72
2023-01-17T18:51:46.619Z,97671.69
2023-01-17T18:54:22.109Z,97658.00
2023-01-17T18:56:57.079Z,97661.47
2023-01-17T18:59:33.748Z,97658.44
2023-01-17T19:02:10.320Z,97649.94
2023-01-17T19:04:44.946Z,97633.53
2023-01-17T19:07:21.363Z,97608.75
2023-01-17T19:09:55.927Z,97608.47
2023-01-17T19:12:30.709Z,97608.28
2023-01-17T19:15:08.047Z,97599.81
2023-01-17T19:17:42.844Z,97589.22
2023-01-17T19:20:19.070Z,97592.19
2023-01-17T19:22:53.782Z,97584.56
2023-01-17T19:25:28.533Z,97605.28
2023-01-17T19:28:04.198Z,97599.81
2023-01-17T19:30:40.881Z,97591.41
2023-01-17T19:33:15.732Z,97605.75
2023-01-17T19:35:50.327Z,97591.63
2023-01-17T19:38:24.882Z,97608.94
2023-01-17T19:40:59.385Z,97606.25
2023-01-17T19:43:34.245Z,97599.50
2023-01-17T19:46:11.216Z,97612.62
2023-01-17T19:48:45.983Z,97603.94
2023-01-17T19:51:20.300Z,97597.03
2023-01-17T19:53:55.369Z,97588.62
2023-01-17T19:56:31.155Z,97576.47
2023-01-17T19:59:06.136Z,97575.25
2023-01-17T20:01:44.658Z,97564.53
2023-01-17T20:04:19.891Z,97544.28
2023-01-17T20:06:54.938Z,97540.44
2023-01-17T20:09:29.732Z,97539.44
2023-01-17T20:12:04.216Z,97537.53
2023-01-17T20:14:39.205Z,97527.34
2023-01-17T20:17:15.058Z,97520.88
2023-01-17T20:19:49.754Z,97514.72
2023-01-17T20:22:24.340Z,97506.50
2023-01-17T20:24:59.212Z,97484.44
2023-01-17T20:27:34.852Z,97494.81
2023-01-17T20:30:20.249Z,97485.66
2023-01-17T20:32:57.645Z,97470.25
2023-01-17T20:35:34.128Z,97475.22
2023-01-17T20:38:10.569Z,97473.75
2023-01-17T20:40:45.112Z,97464.09
2023-01-17T20:43:19.582Z,97458.62
2023-01-17T20:45:57.626Z,97451.22
2023-01-17T20:48:33.546Z,97441.34
2023-01-17T20:51:11.298Z,97437.06
2023-01-17T20:53:46.995Z,97444.34
2023-01-17T20:56:22.198Z,97449.53
2023-01-17T20:58:58.009Z,97443.81
2023-01-17T21:01:34.470Z,97442.44
2023-01-17T21:04:11.208Z,97440.47
2023-01-17T21:06:45.834Z,97430.31
2023-01-17T21:09:21.410Z,97423.38
2023-01-17T21:12:01.132Z,97427.88
2023-01-17T21:14:37.664Z,97418.44
2023-01-17T21:17:16.145Z,97416.19
2023-01-17T21:19:51.845Z,97422.66
2023-01-17T21:22:26.447Z,97409.50
2023-01-17T21:25:00.742Z,97406.28
2023-01-17T21:27:35.615Z,97410.25
2023-01-17T21:30:11.384Z,97400.09
2023-01-17T21:32:45.892Z,97407.53
2023-01-17T21:35:22.115Z,97413.22
2023-01-17T21:37:57.097Z,97421.41
2023-01-17T21:40:31.564Z,97432.56
2023-01-17T21:43:06.093Z,97439.03
2023-01-17T21:45:41.556Z,97438.06
2023-01-17T21:48:16.140Z,97445.97
2023-01-17T21:50:52.704Z,97440.53
2023-01-17T21:53:27.800Z,97439.78
2023-01-17T21:56:20.094Z,97445.72
2023-01-17T21:58:56.951Z,97486.66
2023-01-17T22:01:34.353Z,97470.75
2023-01-17T22:04:10.155Z,97468.56
2023-01-17T22:06:45.679Z,97480.72
2023-01-17T22:09:20.534Z,97480.91
2023-01-17T22:11:54.732Z,97467.53
2023-01-17T22:14:29.152Z,97482.19
2023-01-17T22:17:03.398Z,97498.59
2023-01-17T22:19:38.051Z,97501.56
2023-01-17T22:22:14.104Z,97502.78
2023-01-17T22:24:48.612Z,97499.81
2023-01-17T22:27:22.825Z,97502.78
2023-01-17T22:29:57.644Z,97501.81
2023-01-17T22:32:31.825Z,97504.78
2023-01-17T22:35:07.210Z,97493.87
2023-01-17T22:37:44.401Z,97503.03
2023-01-17T22:40:19.288Z,97507.00
2023-01-17T22:42:54.006Z,97506.53
2023-01-17T22:45:29.264Z,97500.31
2023-01-17T22:48:03.543Z,97520.66
2023-01-17T22:50:38.464Z,97513.94
2023-01-17T22:53:14.260Z,97515.47
2023-01-17T22:55:48.764Z,97516.44
2023-01-17T22:58:23.159Z,97533.56
2023-01-17T23:02:58.922Z,97539.53
2023-01-17T23:05:34.152Z,97539.53
2023-01-17T23:08:08.538Z,97551.12
2023-01-17T23:11:00.744Z,97538.03
2023-01-17T23:13:35.017Z,97540.97
2023-01-17T23:16:27.652Z,97550.91
2023-01-17T23:19:21.010Z,97550.56
2023-01-17T23:22:15.790Z,97550.31
2023-01-17T23:24:52.474Z,97544.28
2023-01-17T23:27:46.573Z,97552.25
2023-01-17T23:30:25.110Z,97565.34
2023-01-17T23:33:01.415Z,97570.97
2023-01-17T23:35:41.752Z,97572.44
2023-01-17T23:38:29.360Z,97575.19
2023-01-17T23:41:23.909Z,97566.78
2023-01-17T23:43:59.634Z,97567.91
2023-01-17T23:46:33.894Z,97568.22
2023-01-17T23:49:08.486Z,97562.22
2023-01-17T23:51:44.108Z,97547.94
2023-01-17T23:54:18.633Z,97532.31
2023-01-17T23:56:52.918Z,97512.53
2023-01-17T23:59:27.421Z,97521.22
